createdAt,value
2019-03-29T00:00:14.233Z,102194.20
2019-03-29T00:02:47.373Z,102199.53
2019-03-29T00:05:19.553Z,102196.20
2019-03-29T00:07:50.997Z,102196.46
2019-03-29T00:10:22.234Z,102197.87
2019-03-29T00:12:53.602Z,102203.50
2019-03-29T00:15:24.989Z,102201.05
2019-03-29T00:17:56.550Z,102195.13
2019-03-29T00:20:27.883Z,102189.63
2019-03-29T00:22:59.169Z,102191.89
2019-03-29T00:25:30.533Z,102188.30
2019-03-29T00:28:01.878Z,102181.34
2019-03-29T00:30:35.285Z,102179.39
2019-03-29T00:33:06.613Z,102181.91
2019-03-29T00:35:37.805Z,102184.03
2019-03-29T00:38:09.122Z,102182.34
2019-03-29T00:40:41.503Z,102180.25
2019-03-29T00:43:12.852Z,102179.05
2019-03-29T00:45:44.138Z,102172.87
2019-03-29T00:48:15.341Z,102173.63
2019-03-29T00:50:46.644Z,102169.25
2019-03-29T00:53:19.038Z,102168.38
2019-03-29T00:55:50.268Z,102172.84
2019-03-29T00:58:22.848Z,102168.14
2019-03-29T01:00:54.291Z,102165.63
2019-03-29T01:03:25.475Z,102163.08
2019-03-29T01:05:56.786Z,102166.19
2019-03-29T01:08:28.000Z,102167.29
2019-03-29T01:11:00.135Z,102163.77
2019-03-29T01:13:31.457Z,102168.31
2019-03-29T01:16:02.818Z,102161.39
2019-03-29T01:18:35.149Z,102168.28
2019-03-29T01:21:06.386Z,102164.27
2019-03-29T01:23:37.635Z,102162.78
2019-03-29T01:26:09.937Z,102162.73
2019-03-29T01:28:41.419Z,102165.49
2019-03-29T01:31:12.653Z,102160.48
2019-03-29T01:33:44.009Z,102166.45
2019-03-29T01:36:15.306Z,102167.58
2019-03-29T01:38:46.413Z,102161.05
2019-03-29T01:41:17.698Z,102162.71
2019-03-29T01:43:49.039Z,102164.88
2019-03-29T01:46:20.337Z,102162.62
2019-03-29T01:48:51.660Z,102162.26
2019-03-29T01:51:22.864Z,102152.27
2019-03-29T01:53:54.172Z,102158.13
2019-03-29T01:56:25.322Z,102151.70
2019-03-29T01:58:56.414Z,102143.68
2019-03-29T02:01:28.421Z,102142.55
2019-03-29T02:04:00.589Z,102146.41
2019-03-29T02:06:31.668Z,102148.23
2019-03-29T02:09:02.979Z,102140.61
2019-03-29T02:11:35.350Z,102140.67
2019-03-29T02:14:06.669Z,102135.64
2019-03-29T02:16:38.032Z,102129.72
2019-03-29T02:19:09.250Z,102133.23
2019-03-29T02:21:40.955Z,102125.39
2019-03-29T02:24:13.271Z,102127.02
2019-03-29T02:26:44.548Z,102128.01
2019-03-29T02:29:15.842Z,102136.80
2019-03-29T02:31:47.788Z,102132.70
2019-03-29T02:34:19.014Z,102132.61
2019-03-29T02:36:50.254Z,102127.10
2019-03-29T02:39:21.551Z,102122.78
2019-03-29T02:41:53.785Z,102124.54
2019-03-29T02:44:24.840Z,102123.12
2019-03-29T02:46:56.133Z,102119.28
2019-03-29T02:49:27.358Z,102114.80
2019-03-29T02:51:58.717Z,102120.51
2019-03-29T02:54:29.944Z,102111.09
2019-03-29T02:57:01.250Z,102117.30
2019-03-29T02:59:33.590Z,102112.89
2019-03-29T03:02:06.911Z,102112.89
2019-03-29T03:04:38.211Z,102122.95
2019-03-29T03:07:10.324Z,102121.22
2019-03-29T03:09:41.563Z,102107.74
2019-03-29T03:12:12.847Z,102108.67
2019-03-29T03:14:44.312Z,102110.84
2019-03-29T03:17:15.547Z,102112.28
2019-03-29T03:19:46.888Z,102116.52
2019-03-29T03:22:18.200Z,102118.60
2019-03-29T03:24:50.427Z,102116.10
2019-03-29T03:27:21.923Z,102116.19
2019-03-29T03:29:53.223Z,102121.73
2019-03-29T03:32:24.474Z,102120.97
2019-03-29T03:34:55.828Z,102126.73
2019-03-29T03:37:27.154Z,102129.06
2019-03-29T03:39:58.526Z,102125.22
2019-03-29T03:42:29.858Z,102129.14
2019-03-29T03:45:01.271Z,102136.59
2019-03-29T03:47:32.582Z,102134.83
2019-03-29T03:50:03.826Z,102133.69
2019-03-29T03:52:35.106Z,102128.11
2019-03-29T03:55:07.200Z,102136.14
2019-03-29T03:57:38.934Z,102132.63
2019-03-29T04:00:11.285Z,102130.22
2019-03-29T04:02:43.657Z,102129.13
2019-03-29T04:05:15.139Z,102125.66
2019-03-29T04:07:46.641Z,102129.16
2019-03-29T04:10:18.284Z,102128.37
2019-03-29T04:12:52.165Z,102122.41
2019-03-29T04:15:23.439Z,102123.07
2019-03-29T04:17:55.750Z,102126.03
2019-03-29T04:20:27.079Z,102119.78
2019-03-29T04:22:58.460Z,102120.56
2019-03-29T04:25:30.950Z,102112.02
2019-03-29T04:28:02.667Z,102122.50
2019-03-29T04:30:35.034Z,102119.31
2019-03-29T04:33:10.861Z,102114.92
2019-03-29T04:35:39.530Z,102113.55
2019-03-29T04:38:10.812Z,102114.47
2019-03-29T04:40:42.145Z,102108.91
2019-03-29T04:43:13.445Z,102104.53
2019-03-29T04:45:44.758Z,102104.49
2019-03-29T04:48:16.076Z,102106.80
2019-03-29T04:50:48.424Z,102102.86
2019-03-29T04:53:20.153Z,102102.45
2019-03-29T04:55:51.491Z,102093.12
2019-03-29T04:58:22.761Z,102095.77
2019-03-29T05:00:54.133Z,102095.39
2019-03-29T05:03:25.439Z,102088.81
2019-03-29T05:05:56.907Z,102093.11
2019-03-29T05:08:28.232Z,102092.95
2019-03-29T05:10:59.531Z,102091.72
2019-03-29T05:13:30.747Z,102095.83
2019-03-29T05:16:02.063Z,102091.19
2019-03-29T05:18:33.406Z,102094.48
2019-03-29T05:21:04.638Z,102088.84
2019-03-29T05:23:35.968Z,102092.05
2019-03-29T05:26:07.290Z,102090.57
2019-03-29T05:28:41.380Z,102086.27
2019-03-29T05:31:12.676Z,102092.75
2019-03-29T05:33:43.915Z,102086.77
2019-03-29T05:36:15.304Z,102085.59
2019-03-29T05:38:47.055Z,102087.27
2019-03-29T05:41:18.273Z,102093.80
2019-03-29T05:43:49.603Z,102094.06
2019-03-29T05:46:20.970Z,102092.23
2019-03-29T05:48:52.204Z,102092.65
2019-03-29T05:51:23.512Z,102095.99
2019-03-29T05:53:54.926Z,102098.36
2019-03-29T05:56:26.170Z,102095.80
2019-03-29T05:58:57.481Z,102097.66
2019-03-29T06:01:28.837Z,102105.53
2019-03-29T06:04:01.218Z,102102.48
2019-03-29T06:06:32.553Z,102110.41
2019-03-29T06:09:05.530Z,102109.97
2019-03-29T06:11:36.885Z,102109.09
2019-03-29T06:14:08.200Z,102109.54
2019-03-29T06:16:39.617Z,102109.08
2019-03-29T06:19:10.897Z,102113.48
2019-03-29T06:21:43.864Z,102114.39
2019-03-29T06:24:15.282Z,102122.08
2019-03-29T06:26:46.636Z,102114.99
2019-03-29T06:29:17.987Z,102117.98
2019-03-29T06:31:49.371Z,102113.14
2019-03-29T06:34:21.276Z,102121.76
2019-03-29T06:36:52.609Z,102111.00
2019-03-29T06:39:29.940Z,102111.01
2019-03-29T06:42:01.266Z,102117.64
2019-03-29T06:44:32.610Z,102116.66
2019-03-29T06:47:05.012Z,102112.08
2019-03-29T06:49:36.304Z,102109.62
2019-03-29T06:52:08.873Z,102108.92
2019-03-29T06:54:45.526Z,102110.20
2019-03-29T06:57:17.001Z,102109.47
2019-03-29T06:59:50.432Z,102103.03
2019-03-29T07:02:21.904Z,102106.66
2019-03-29T07:04:57.198Z,102110.12
2019-03-29T07:07:34.900Z,102104.75
2019-03-29T07:10:06.984Z,102108.48
2019-03-29T07:12:39.385Z,102102.92
2019-03-29T07:15:10.852Z,102102.34
2019-03-29T07:17:42.231Z,102101.84
2019-03-29T07:20:13.657Z,102102.54
2019-03-29T07:22:45.041Z,102102.73
2019-03-29T07:25:16.483Z,102095.27
2019-03-29T07:27:52.357Z,102097.80
2019-03-29T07:30:23.764Z,102088.03
2019-03-29T07:32:55.201Z,102088.66
2019-03-29T07:35:28.162Z,102083.52
2019-03-29T07:37:59.406Z,102073.80
2019-03-29T07:40:30.840Z,102069.95
2019-03-29T07:43:03.223Z,102067.21
2019-03-29T07:45:42.612Z,102067.09
2019-03-29T07:48:15.734Z,102059.34
2019-03-29T07:50:47.114Z,102068.52
2019-03-29T07:53:22.103Z,102062.06
2019-03-29T07:55:55.029Z,102063.24
2019-03-29T07:58:26.442Z,102074.30
2019-03-29T08:01:01.611Z,102065.26
2019-03-29T08:03:34.010Z,102062.57
2019-03-29T08:06:06.492Z,102068.54
2019-03-29T08:08:37.963Z,102065.43
2019-03-29T08:11:09.661Z,102068.73
2019-03-29T08:13:41.053Z,102069.67
2019-03-29T08:16:12.369Z,102068.66
2019-03-29T08:18:44.780Z,102060.31
2019-03-29T08:21:16.313Z,102048.28
2019-03-29T08:23:49.670Z,102053.26
2019-03-29T08:26:22.413Z,102046.64
2019-03-29T08:29:06.803Z,102043.13
2019-03-29T08:31:36.394Z,102035.82
2019-03-29T08:34:11.145Z,102030.42
2019-03-29T08:36:42.646Z,102033.37
2019-03-29T08:39:27.365Z,102035.31
2019-03-29T08:41:59.588Z,102024.70
2019-03-29T08:44:27.349Z,102025.25
2019-03-29T08:47:00.836Z,102029.24
2019-03-29T08:49:41.946Z,102010.80
2019-03-29T08:52:13.232Z,102010.80
2019-03-29T08:54:45.628Z,102011.92
2019-03-29T08:57:18.162Z,102009.48
2019-03-29T08:59:51.476Z,102014.58
2019-03-29T09:02:25.216Z,102002.54
2019-03-29T09:04:56.442Z,101996.89
2019-03-29T09:07:28.178Z,101993.94
2019-03-29T09:10:00.561Z,101995.30
2019-03-29T09:12:33.502Z,101984.42
2019-03-29T09:15:05.056Z,101982.84
2019-03-29T09:17:37.362Z,101966.48
2019-03-29T09:20:10.704Z,101962.91
2019-03-29T09:22:44.220Z,101951.75
2019-03-29T09:25:15.659Z,101950.08
2019-03-29T09:27:48.320Z,101946.91
2019-03-29T09:30:19.695Z,101948.37
2019-03-29T09:32:51.793Z,101940.98
2019-03-29T09:35:23.139Z,101942.48
2019-03-29T09:37:56.527Z,101937.38
2019-03-29T09:40:27.918Z,101934.30
2019-03-29T09:43:07.402Z,101938.81
2019-03-29T09:45:32.596Z,101933.19
2019-03-29T09:48:06.045Z,101936.91
2019-03-29T09:53:28.351Z,101941.16
2019-03-29T09:55:59.905Z,101923.44
2019-03-29T09:58:31.236Z,101910.78
2019-03-29T10:01:02.518Z,101910.78
2019-03-29T10:03:33.760Z,101913.35
2019-03-29T10:06:05.037Z,101904.41
2019-03-29T10:08:36.458Z,101913.38
2019-03-29T10:11:07.801Z,101910.95
2019-03-29T10:13:41.128Z,101913.31
2019-03-29T10:16:13.792Z,101902.88
2019-03-29T10:18:45.478Z,101902.88
2019-03-29T10:21:17.699Z,101899.80
2019-03-29T10:23:51.345Z,101900.59
2019-03-29T10:26:22.815Z,101904.22
2019-03-29T10:29:00.430Z,101895.28
2019-03-29T10:31:34.862Z,101889.64
2019-03-29T10:34:11.070Z,101894.09
2019-03-29T10:36:43.018Z,101892.98
2019-03-29T10:39:17.993Z,101879.41
2019-03-29T10:41:54.175Z,101879.41
2019-03-29T10:44:28.368Z,101874.77
2019-03-29T10:47:00.019Z,101865.50
2019-03-29T10:49:32.496Z,101869.11
2019-03-29T10:52:03.846Z,101862.85
2019-03-29T10:54:36.348Z,101850.97
2019-03-29T10:57:09.632Z,101855.30
2019-03-29T10:59:42.914Z,101854.79
2019-03-29T11:02:14.308Z,101848.47
2019-03-29T11:04:45.623Z,101855.98
2019-03-29T11:07:16.994Z,101847.36
2019-03-29T11:09:49.414Z,101844.80
2019-03-29T11:12:20.831Z,101840.34
2019-03-29T11:14:52.151Z,101829.81
2019-03-29T11:17:23.498Z,101833.98
2019-03-29T11:19:55.069Z,101825.66
2019-03-29T11:22:30.556Z,101825.03
2019-03-29T11:25:03.354Z,101826.23
2019-03-29T11:27:35.033Z,101815.81
2019-03-29T11:30:12.512Z,101809.55
2019-03-29T11:32:44.159Z,101800.05
2019-03-29T11:35:15.936Z,101807.95
2019-03-29T11:37:47.644Z,101819.71
2019-03-29T11:40:19.352Z,101802.17
2019-03-29T11:42:50.907Z,101808.62
2019-03-29T11:45:25.574Z,101801.95
2019-03-29T11:48:08.543Z,101803.31
2019-03-29T11:50:34.340Z,101779.32
2019-03-29T11:53:06.887Z,101779.32
2019-03-29T11:55:39.434Z,101780.40
2019-03-29T11:58:10.979Z,101780.05
2019-03-29T12:00:42.325Z,101782.52
2019-03-29T12:03:15.534Z,101781.90
2019-03-29T12:05:48.456Z,101776.53
2019-03-29T12:08:19.813Z,101768.44
2019-03-29T12:10:51.433Z,101767.23
2019-03-29T12:13:22.762Z,101756.35
2019-03-29T12:15:55.887Z,101752.75
2019-03-29T12:18:27.338Z,101748.70
2019-03-29T12:20:58.927Z,101754.42
2019-03-29T12:23:30.327Z,101741.48
2019-03-29T12:26:05.022Z,101737.38
2019-03-29T12:28:37.410Z,101738.01
2019-03-29T12:31:20.895Z,101738.55
2019-03-29T12:33:52.652Z,101723.61
2019-03-29T12:36:23.903Z,101722.92
2019-03-29T12:38:55.320Z,101726.23
2019-03-29T12:41:28.050Z,101722.25
2019-03-29T12:43:59.870Z,101715.81
2019-03-29T12:46:33.261Z,101717.39
2019-03-29T12:49:06.681Z,101696.20
2019-03-29T12:51:40.297Z,101707.88
2019-03-29T12:54:12.895Z,101696.97
2019-03-29T12:56:46.961Z,101694.09
2019-03-29T12:59:18.316Z,101687.28
2019-03-29T13:01:49.678Z,101688.56
2019-03-29T13:04:21.100Z,101681.63
2019-03-29T13:06:52.644Z,101667.70
2019-03-29T13:09:30.060Z,101666.02
2019-03-29T13:12:01.554Z,101657.53
2019-03-29T13:14:35.749Z,101651.59
2019-03-29T13:17:10.704Z,101645.39
2019-03-29T13:19:46.762Z,101632.45
2019-03-29T13:22:18.014Z,101641.80
2019-03-29T13:24:49.328Z,101635.68
2019-03-29T13:27:20.771Z,101635.22
2019-03-29T13:29:55.487Z,101620.49
2019-03-29T13:32:28.016Z,101620.89
2019-03-29T13:35:00.926Z,101611.24
2019-03-29T13:37:33.500Z,101609.55
2019-03-29T13:40:08.169Z,101612.66
2019-03-29T13:42:40.518Z,101608.45
2019-03-29T13:45:11.853Z,101605.66
2019-03-29T13:47:45.405Z,101608.28
2019-03-29T13:50:18.253Z,101606.64
2019-03-29T13:52:50.646Z,101612.33
2019-03-29T13:55:21.966Z,101607.63
2019-03-29T14:00:47.030Z,101597.91
2019-03-29T14:03:18.863Z,101584.90
2019-03-29T14:05:50.328Z,101594.31
2019-03-29T14:08:24.567Z,101591.99
2019-03-29T14:10:58.165Z,101586.91
2019-03-29T14:13:30.211Z,101587.09
2019-03-29T14:16:03.961Z,101584.16
2019-03-29T14:18:36.687Z,101593.78
2019-03-29T14:21:10.393Z,101590.00
2019-03-29T14:23:42.135Z,101594.38
2019-03-29T14:26:16.365Z,101588.16
2019-03-29T14:28:47.838Z,101583.48
2019-03-29T14:31:19.148Z,101596.94
2019-03-29T14:33:50.411Z,101584.54
2019-03-29T14:36:22.980Z,101584.55
2019-03-29T14:38:54.367Z,101583.08
2019-03-29T14:44:05.828Z,101578.47
2019-03-29T14:46:39.914Z,101584.66
2019-03-29T14:49:11.480Z,101588.09
2019-03-29T14:51:43.035Z,101589.64
2019-03-29T14:54:14.692Z,101589.08
2019-03-29T14:56:47.384Z,101599.02
2019-03-29T14:59:24.803Z,101594.84
2019-03-29T15:01:56.194Z,101596.77
2019-03-29T15:04:30.467Z,101590.34
2019-03-29T15:07:03.719Z,101596.22
2019-03-29T15:09:35.451Z,101600.97
2019-03-29T15:12:08.502Z,101588.63
2019-03-29T15:14:39.748Z,101588.98
2019-03-29T15:17:11.090Z,101584.45
2019-03-29T15:19:43.807Z,101592.91
2019-03-29T15:22:19.145Z,101586.26
2019-03-29T15:24:55.280Z,101591.78
2019-03-29T15:27:26.756Z,101587.36
2019-03-29T15:29:59.030Z,101586.63
2019-03-29T15:32:45.694Z,101583.38
2019-03-29T15:35:21.053Z,101573.80
2019-03-29T15:37:55.263Z,101573.80
2019-03-29T15:40:26.595Z,101578.41
2019-03-29T15:42:57.935Z,101575.91
2019-03-29T15:45:31.311Z,101569.64
2019-03-29T15:48:02.679Z,101558.13
2019-03-29T15:50:34.079Z,101558.64
2019-03-29T15:53:05.648Z,101558.64
2019-03-29T15:55:36.976Z,101557.55
2019-03-29T15:58:16.106Z,101560.50
2019-03-29T16:00:47.537Z,101557.10
2019-03-29T16:03:19.236Z,101556.69
2019-03-29T16:05:50.902Z,101554.41
2019-03-29T16:08:22.446Z,101543.69
2019-03-29T16:10:53.821Z,101549.43
2019-03-29T16:13:26.101Z,101559.89
2019-03-29T16:15:57.594Z,101552.48
2019-03-29T16:18:34.467Z,101552.48
2019-03-29T16:21:06.936Z,101548.18
2019-03-29T16:23:38.618Z,101549.09
2019-03-29T16:26:12.125Z,101548.42
2019-03-29T16:28:43.657Z,101547.38
2019-03-29T16:31:15.606Z,101540.35
2019-03-29T16:33:57.498Z,101544.45
2019-03-29T16:36:29.004Z,101596.69
2019-03-29T16:39:00.373Z,101538.88
2019-03-29T16:41:31.798Z,101535.86
2019-03-29T16:44:05.763Z,101544.84
2019-03-29T16:46:37.156Z,101546.52
2019-03-29T16:49:10.118Z,101553.55
2019-03-29T16:51:41.966Z,101589.66
2019-03-29T16:54:18.491Z,101557.26
2019-03-29T16:56:50.947Z,101571.19
2019-03-29T16:59:22.546Z,101571.31
2019-03-29T17:01:55.077Z,101580.98
2019-03-29T17:04:26.579Z,101572.56
2019-03-29T17:07:02.715Z,101572.81
2019-03-29T17:12:40.735Z,101572.50
2019-03-29T17:15:14.023Z,101579.27
2019-03-29T17:17:50.717Z,101575.25
2019-03-29T17:20:22.137Z,101583.83
2019-03-29T17:22:55.792Z,101590.20
2019-03-29T17:25:28.756Z,101586.35
2019-03-29T17:28:02.446Z,101590.95
2019-03-29T17:30:39.723Z,101585.54
2019-03-29T17:33:11.117Z,101583.77
2019-03-29T17:35:43.679Z,101578.36
2019-03-29T17:38:15.128Z,101584.44
2019-03-29T17:40:46.671Z,101584.44
2019-03-29T17:43:18.644Z,101587.04
2019-03-29T17:45:51.908Z,101582.84
2019-03-29T17:48:24.349Z,101578.53
2019-03-29T17:50:55.673Z,101582.59
2019-03-29T17:53:27.049Z,101583.38
2019-03-29T17:55:58.352Z,101622.63
2019-03-29T17:58:29.587Z,101567.53
2019-03-29T18:01:03.576Z,101570.00
2019-03-29T18:03:35.326Z,101564.42
2019-03-29T18:06:07.730Z,101566.77
2019-03-29T18:08:38.991Z,101566.77
2019-03-29T18:11:10.486Z,101573.73
2019-03-29T18:13:42.022Z,101573.73
2019-03-29T18:16:13.391Z,101574.19
2019-03-29T18:18:44.720Z,101578.87
2019-03-29T18:21:16.033Z,101568.48
2019-03-29T18:23:47.323Z,101568.48
2019-03-29T18:26:18.983Z,101565.83
2019-03-29T18:28:50.303Z,101568.52
2019-03-29T18:31:23.800Z,101561.64
2019-03-29T18:34:02.953Z,101561.11
2019-03-29T18:36:37.348Z,101561.11
2019-03-29T18:39:08.738Z,101562.96
2019-03-29T18:41:42.444Z,101560.75
2019-03-29T18:44:13.812Z,101560.75
2019-03-29T18:46:45.381Z,101567.00
2019-03-29T18:49:18.597Z,101559.97
2019-03-29T18:51:51.096Z,101549.77
2019-03-29T18:54:22.417Z,101549.77
2019-03-29T18:56:54.836Z,101561.11
2019-03-29T18:59:26.279Z,101554.53
2019-03-29T19:01:58.837Z,101555.14
2019-03-29T19:04:30.235Z,101547.12
2019-03-29T19:07:01.769Z,101547.12
2019-03-29T19:09:34.182Z,101536.47
2019-03-29T19:12:05.553Z,101541.36
2019-03-29T19:14:36.895Z,101546.61
2019-03-29T19:17:08.186Z,101546.48
2019-03-29T19:19:39.535Z,101550.75
2019-03-29T19:22:11.135Z,101541.13
2019-03-29T19:24:44.547Z,101549.13
2019-03-29T19:27:18.927Z,101545.39
2019-03-29T19:29:50.302Z,101548.30
2019-03-29T19:32:21.688Z,101544.17
2019-03-29T19:34:53.037Z,101547.77
2019-03-29T19:37:24.332Z,101546.17
2019-03-29T19:39:55.671Z,101541.19
2019-03-29T19:42:26.969Z,101543.34
2019-03-29T19:44:58.288Z,101545.03
2019-03-29T19:47:29.698Z,101545.27
2019-03-29T19:50:05.066Z,101536.39
2019-03-29T19:52:37.625Z,101533.98
2019-03-29T19:55:09.306Z,101527.73
2019-03-29T19:57:40.635Z,101534.33
2019-03-29T20:00:13.037Z,101536.27
2019-03-29T20:02:44.654Z,101528.44
2019-03-29T20:05:26.814Z,101528.09
2019-03-29T20:08:03.199Z,101514.63
2019-03-29T20:10:34.571Z,101514.63
2019-03-29T20:13:07.036Z,101511.13
2019-03-29T20:15:38.365Z,101511.96
2019-03-29T20:18:09.700Z,101520.30
2019-03-29T20:20:41.033Z,101520.30
2019-03-29T20:23:13.456Z,101521.59
2019-03-29T20:25:44.768Z,101517.22
2019-03-29T20:28:17.072Z,101514.58
2019-03-29T20:30:48.400Z,101509.31
2019-03-29T20:33:19.695Z,101500.12
2019-03-29T20:35:51.954Z,101495.14
2019-03-29T20:38:25.322Z,101496.08
2019-03-29T20:40:57.705Z,101495.23
2019-03-29T20:43:29.563Z,101489.45
2019-03-29T20:46:02.395Z,101489.02
2019-03-29T20:48:33.791Z,101483.80
2019-03-29T20:51:05.221Z,101487.34
2019-03-29T20:53:36.593Z,101488.16
2019-03-29T20:56:07.905Z,101484.64
2019-03-29T20:58:40.211Z,101479.35
2019-03-29T21:01:11.368Z,101475.91
2019-03-29T21:03:43.762Z,101470.41
2019-03-29T21:06:15.407Z,101470.09
2019-03-29T21:08:47.620Z,101470.09
2019-03-29T21:11:18.992Z,101480.31
2019-03-29T21:13:51.453Z,101471.13
2019-03-29T21:16:23.738Z,101482.62
2019-03-29T21:18:55.012Z,101483.10
2019-03-29T21:21:26.225Z,101478.30
2019-03-29T21:23:57.509Z,101482.30
2019-03-29T21:26:28.827Z,101487.15
2019-03-29T21:29:00.057Z,101481.91
2019-03-29T21:31:31.388Z,101491.60
2019-03-29T21:34:03.838Z,101496.88
2019-03-29T21:36:35.156Z,101487.20
2019-03-29T21:39:09.149Z,101485.45
2019-03-29T21:41:40.486Z,101492.10
2019-03-29T21:44:11.842Z,101496.08
2019-03-29T21:46:43.169Z,101502.25
2019-03-29T21:49:18.118Z,101490.83
2019-03-29T21:51:50.439Z,101491.76
2019-03-29T21:54:22.795Z,101490.81
2019-03-29T21:56:54.106Z,101493.42
2019-03-29T21:59:26.519Z,101486.42
2019-03-29T22:01:57.798Z,101482.42
2019-03-29T22:04:29.161Z,101486.86
2019-03-29T22:07:00.464Z,101487.34
2019-03-29T22:09:37.214Z,101481.16
2019-03-29T22:12:04.821Z,101479.88
2019-03-29T22:14:36.076Z,101482.97
2019-03-29T22:17:08.433Z,101480.76
2019-03-29T22:19:39.715Z,101476.84
2019-03-29T22:22:10.992Z,101477.31
2019-03-29T22:24:42.370Z,101473.34
2019-03-29T22:27:13.699Z,101469.02
2019-03-29T22:29:46.521Z,101471.25
2019-03-29T22:32:17.741Z,101475.20
2019-03-29T22:34:48.972Z,101477.87
2019-03-29T22:37:20.505Z,101481.84
2019-03-29T22:39:51.811Z,101480.54
2019-03-29T22:42:23.137Z,101479.19
2019-03-29T22:44:55.479Z,101479.16
2019-03-29T22:47:26.739Z,101483.99
2019-03-29T22:49:58.053Z,101478.73
2019-03-29T22:52:29.564Z,101472.56
2019-03-29T22:55:02.886Z,101471.72
2019-03-29T22:57:36.282Z,101472.64
2019-03-29T23:00:19.593Z,101467.39
2019-03-29T23:02:52.191Z,101473.58
2019-03-29T23:05:23.405Z,101473.58
2019-03-29T23:07:54.680Z,101469.20
2019-03-29T23:10:26.117Z,101461.73
2019-03-29T23:12:57.415Z,101463.02
2019-03-29T23:15:28.715Z,101455.95
2019-03-29T23:18:00.037Z,101458.59
2019-03-29T23:20:31.357Z,101452.41
2019-03-29T23:23:03.722Z,101448.84
2019-03-29T23:25:35.072Z,101445.73
2019-03-29T23:28:06.455Z,101436.95
2019-03-29T23:30:37.916Z,101444.48
2019-03-29T23:33:10.422Z,101431.31
2019-03-29T23:35:41.787Z,101434.41
2019-03-29T23:38:13.106Z,101441.45
2019-03-29T23:40:44.407Z,101434.02
2019-03-29T23:43:15.737Z,101437.54
2019-03-29T23:45:47.192Z,101438.44
2019-03-29T23:48:21.251Z,101438.00
2019-03-29T23:50:53.964Z,101425.28
2019-03-29T23:53:25.254Z,101423.95
2019-03-29T23:55:56.586Z,101425.32
2019-03-29T23:58:28.053Z,101420.08
